Time;durP1;ratioP1;P1;durP2;ratioP2;P2;SDS_P1;SDS_P2;PMS_P1;PMS_P2;Temp;Humidity;BMP_temperature;BMP_pressure;BME280_temperature;BME280_humidity;BME280_pressure;Samples;Min_cycle;Max_cycle;Signal;HPM_P1;HPM_P2
2024/03/16 00:00:09;;;;;;;6.80;5.22;;;;;;;;;;499122;28;1005;-84
2024/03/16 00:00:25;;;;;;;7.85;5.43;;;;;;;;;;499553;28;1293;-85
2024/03/16 00:00:44;;;;;;;8.23;5.27;;;;;;;;;;495035;28;1338;-84
2024/03/16 00:01:00;;;;;;;6.00;5.05;;;;;;;;;;499615;28;1438;-85
2024/03/16 00:01:16;;;;;;;6.35;5.38;;;;;;;;;;499342;28;1120;-85
2024/03/16 00:01:32;;;;;;;7.57;5.80;;;;;;;;;;493942;28;1170;-83
2024/03/16 00:01:48;;;;;;;8.85;6.28;;;;;;;;;;496319;28;1417;-85
2024/03/16 00:02:03;;;;;;;9.85;6.35;;;;;;;;;;496109;28;1251;-85
2024/03/16 00:02:19;;;;;;;8.05;5.97;;;;;;;;;;498357;28;1053;-85
2024/03/16 00:02:36;;;;;;;7.53;6.13;;;;;;;;;;491119;28;1053;-85
2024/03/16 00:02:52;;;;;;;8.52;6.22;;;;;;;;;;497540;28;1629;-84
2024/03/16 00:03:09;;;;;;;8.55;6.22;;;;;;;;;;496631;28;1153;-84
2024/03/16 00:03:25;;;;;;;8.95;6.45;;;;;;;;;;496183;28;1346;-84
2024/03/16 00:03:41;;;;;;;9.03;6.30;;;;;;;;;;493485;28;2018;-84
2024/03/16 00:03:56;;;;;;;8.73;6.28;;;;;;;;;;496744;28;1206;-84
2024/03/16 00:04:12;;;;;;;8.40;6.18;;;;;;;;;;498953;28;1145;-84
2024/03/16 00:04:29;;;;;;;8.57;6.47;;;;;;;;;;494652;28;1113;-85
2024/03/16 00:04:45;;;;;;;7.55;6.65;;;;;;;;;;495746;28;1422;-85
2024/03/16 00:05:00;;;;;;;8.55;6.70;;;;;;;;;;498440;28;1046;-84
2024/03/16 00:05:16;;;;;;;8.27;6.28;;;;;;;;;;498630;28;1233;-83
2024/03/16 00:05:32;;;;;;;7.68;6.10;;;;;;;;;;494316;28;926;-84
2024/03/16 00:05:48;;;;;;;8.15;6.60;;;;;;;;;;498677;28;1449;-84
2024/03/16 00:06:04;;;;;;;10.00;7.63;;;;;;;;;;493614;28;1258;-85
2024/03/16 00:06:20;;;;;;;11.15;8.32;;;;;;;;;;498797;28;1299;-84
2024/03/16 00:06:37;;;;;;;9.52;7.35;;;;;;;;;;491485;28;1168;-84
2024/03/16 00:06:53;;;;;;;8.85;6.97;;;;;;;;;;498095;28;1215;-83
2024/03/16 00:07:11;;;;;;;8.95;7.30;;;;;;;;;;494917;28;1122;-84
2024/03/16 00:07:27;;;;;;;9.38;6.90;;;;;;;;;;497155;28;961;-85
2024/03/16 00:07:45;;;;;;;7.63;6.40;;;;;;;;;;494679;28;1286;-84
2024/03/16 00:08:01;;;;;;;9.45;6.50;;;;;;;;;;502065;28;961;-83
2024/03/16 00:08:17;;;;;;;8.73;6.43;;;;;;;;;;499845;28;1039;-84
2024/03/16 00:08:32;;;;;;;7.10;6.38;;;;;;;;;;493290;28;1266;-84
2024/03/16 00:08:48;;;;;;;7.72;6.80;;;;;;;;;;495628;28;1330;-84
2024/03/16 00:09:04;;;;;;;8.52;6.88;;;;;;;;;;497059;28;1247;-84
2024/03/16 00:09:20;;;;;;;9.03;6.83;;;;;;;;;;497581;28;1232;-83
2024/03/16 00:09:36;;;;;;;8.77;7.07;;;;;;;;;;493089;28;1195;-83
2024/03/16 00:09:51;;;;;;;9.65;7.28;;;;;;;;;;497695;28;1453;-84
2024/03/16 00:10:08;;;;;;;10.05;7.57;;;;;;;;;;495632;28;1248;-84
2024/03/16 00:10:23;;;;;;;9.98;7.20;;;;;;;;;;496975;28;1243;-84
2024/03/16 00:10:40;;;;;;;9.57;6.60;;;;;;;;;;493840;28;1218;-84
2024/03/16 00:10:56;;;;;;;8.25;6.22;;;;;;;;;;499336;28;1307;-84
2024/03/16 00:11:12;;;;;;;7.13;5.90;;;;;;;;;;497929;28;1044;-85
2024/03/16 00:11:28;;;;;;;6.82;6.00;;;;;;;;;;497422;28;1266;-84
2024/03/16 00:11:44;;;;;;;10.97;6.47;;;;;;;;;;496141;28;1436;-83
2024/03/16 00:12:00;;;;;;;11.00;6.28;;;;;;;;;;497876;28;1124;-84
2024/03/16 00:12:16;;;;;;;7.15;5.90;;;;;;;;;;499664;28;1234;-83
2024/03/16 00:12:34;;;;;;;6.93;5.93;;;;;;;;;;494523;28;1213;-84
2024/03/16 00:12:50;;;;;;;7.03;5.85;;;;;;;;;;494980;28;1232;-84
2024/03/16 00:13:06;;;;;;;6.90;5.65;;;;;;;;;;498444;28;1052;-83
2024/03/16 00:13:22;;;;;;;7.30;5.70;;;;;;;;;;495019;28;1235;-82
2024/03/16 00:13:38;;;;;;;8.40;5.87;;;;;;;;;;490407;28;1322;-84
2024/03/16 00:13:57;;;;;;;8.15;5.90;;;;;;;;;;495994;28;1216;-84
2024/03/16 00:14:13;;;;;;;6.25;5.60;;;;;;;;;;496123;28;1452;-85
2024/03/16 00:14:29;;;;;;;6.07;5.35;;;;;;;;;;494704;28;1318;-85
2024/03/16 00:14:45;;;;;;;6.77;5.33;;;;;;;;;;498218;28;1317;-83
2024/03/16 00:15:01;;;;;;;6.57;5.47;;;;;;;;;;498429;28;1042;-84
2024/03/16 00:15:17;;;;;;;6.60;5.70;;;;;;;;;;499705;28;1276;-83
2024/03/16 00:15:32;;;;;;;6.72;5.60;;;;;;;;;;495293;28;1257;-84
2024/03/16 00:15:49;;;;;;;6.22;5.50;;;;;;;;;;498513;28;1685;-84
2024/03/16 00:16:05;;;;;;;6.25;5.60;;;;;;;;;;500718;28;1452;-84
2024/03/16 00:16:21;;;;;;;7.72;5.70;;;;;;;;;;501648;28;1046;-84
2024/03/16 00:16:37;;;;;;;7.57;5.60;;;;;;;;;;493114;28;1218;-84
2024/03/16 00:16:52;;;;;;;6.67;5.53;;;;;;;;;;497108;28;1116;-84
2024/03/16 00:17:08;;;;;;;6.40;5.43;;;;;;;;;;497866;28;1023;-84
2024/03/16 00:17:24;;;;;;;6.40;5.30;;;;;;;;;;497083;28;1177;-83
2024/03/16 00:17:40;;;;;;;7.30;5.22;;;;;;;;;;495003;28;1180;-85
2024/03/16 00:17:56;;;;;;;7.13;5.28;;;;;;;;;;502260;28;1160;-84
2024/03/16 00:18:12;;;;;;;6.77;5.20;;;;;;;;;;503294;28;1000;-84
2024/03/16 00:18:27;;;;;;;6.78;4.85;;;;;;;;;;497168;28;1392;-84
2024/03/16 00:18:43;;;;;;;6.88;4.95;;;;;;;;;;495767;28;1312;-85
2024/03/16 00:18:59;;;;;;;7.82;5.53;;;;;;;;;;495710;28;1067;-83
2024/03/16 00:19:15;;;;;;;6.75;5.38;;;;;;;;;;495468;28;1397;-84
2024/03/16 00:19:31;;;;;;;5.63;5.03;;;;;;;;;;494318;28;1196;-85
2024/03/16 00:19:47;;;;;;;7.22;5.20;;;;;;;;;;495623;28;1207;-83
2024/03/16 00:20:07;;;;;;;8.47;5.30;;;;;;;;;;498939;28;1419;-84
2024/03/16 00:20:22;;;;;;;6.10;5.00;;;;;;;;;;497729;28;1126;-84
2024/03/16 00:20:40;;;;;;;6.70;5.15;;;;;;;;;;496608;28;1213;-83
2024/03/16 00:20:56;;;;;;;6.80;5.28;;;;;;;;;;497423;28;1388;-84
2024/03/16 00:21:12;;;;;;;5.90;5.00;;;;;;;;;;498027;28;1041;-84
2024/03/16 00:21:28;;;;;;;5.95;4.82;;;;;;;;;;496002;28;1216;-84
2024/03/16 00:21:44;;;;;;;5.93;4.90;;;;;;;;;;496209;28;1274;-84
2024/03/16 00:22:02;;;;;;;5.53;4.60;;;;;;;;;;498198;28;1351;-84
2024/03/16 00:22:21;;;;;;;5.47;4.55;;;;;;;;;;497564;28;1046;-84
2024/03/16 00:22:38;;;;;;;6.22;4.93;;;;;;;;;;494119;28;1187;-84
2024/03/16 00:22:54;;;;;;;7.80;5.00;;;;;;;;;;495529;28;1306;-84
2024/03/16 00:23:10;;;;;;;8.27;5.03;;;;;;;;;;493690;28;1426;-84
2024/03/16 00:23:25;;;;;;;7.85;5.43;;;;;;;;;;494225;28;954;-84
2024/03/16 00:23:41;;;;;;;6.97;5.20;;;;;;;;;;494903;28;2016;-84
2024/03/16 00:23:57;;;;;;;6.78;5.00;;;;;;;;;;499441;28;1277;-84
2024/03/16 00:24:13;;;;;;;7.95;5.38;;;;;;;;;;499012;28;1129;-84
2024/03/16 00:24:30;;;;;;;7.45;5.90;;;;;;;;;;496031;28;1489;-84
2024/03/16 00:24:45;;;;;;;7.20;5.68;;;;;;;;;;498081;28;1055;-84
2024/03/16 00:25:01;;;;;;;7.05;5.47;;;;;;;;;;499071;28;1145;-83
2024/03/16 00:25:18;;;;;;;7.43;5.40;;;;;;;;;;495216;28;1226;-84
2024/03/16 00:25:33;;;;;;;7.72;5.32;;;;;;;;;;490912;28;1199;-83
2024/03/16 00:25:50;;;;;;;6.95;5.38;;;;;;;;;;493881;28;1365;-83
2024/03/16 00:26:07;;;;;;;6.15;5.07;;;;;;;;;;497838;28;1084;-82
2024/03/16 00:26:23;;;;;;;6.82;5.15;;;;;;;;;;499866;28;1155;-83
2024/03/16 00:26:39;;;;;;;6.72;5.00;;;;;;;;;;494087;28;1164;-83
2024/03/16 00:26:57;;;;;;;6.40;5.07;;;;;;;;;;500431;28;1331;-83
2024/03/16 00:27:13;;;;;;;6.70;5.10;;;;;;;;;;499220;28;1061;-84
2024/03/16 00:27:29;;;;;;;6.43;5.15;;;;;;;;;;496158;28;1184;-84
2024/03/16 00:27:45;;;;;;;7.07;5.43;;;;;;;;;;494147;28;984;-83
2024/03/16 00:28:00;;;;;;;6.85;5.18;;;;;;;;;;497167;28;997;-83
2024/03/16 00:28:17;;;;;;;7.13;5.10;;;;;;;;;;496229;28;1250;-83
2024/03/16 00:28:33;;;;;;;8.05;5.20;;;;;;;;;;492700;28;1084;-83
2024/03/16 00:28:50;;;;;;;7.95;5.18;;;;;;;;;;497934;28;1297;-83
2024/03/16 00:29:07;;;;;;;6.53;5.18;;;;;;;;;;499234;28;1238;-83
2024/03/16 00:29:23;;;;;;;5.95;5.18;;;;;;;;;;498384;28;1303;-84
2024/03/16 00:29:38;;;;;;;5.63;4.95;;;;;;;;;;497639;28;1282;-83
2024/03/16 00:29:57;;;;;;;7.17;5.10;;;;;;;;;;498874;28;1203;-83
2024/03/16 00:30:14;;;;;;;9.93;5.20;;;;;;;;;;497072;28;1450;-84
2024/03/16 00:30:30;;;;;;;9.13;5.40;;;;;;;;;;494221;28;964;-82
2024/03/16 00:30:45;;;;;;;6.67;5.23;;;;;;;;;;495271;28;1427;-83
2024/03/16 00:31:01;;;;;;;5.90;4.63;;;;;;;;;;496208;28;1137;-84
2024/03/16 00:31:20;;;;;;;5.95;4.40;;;;;;;;;;494587;28;1461;-84
2024/03/16 00:31:36;;;;;;;5.88;4.70;;;;;;;;;;493754;28;1334;-83
2024/03/16 00:31:54;;;;;;;5.40;4.32;;;;;;;;;;497361;28;1378;-83
2024/03/16 00:32:10;;;;;;;6.47;4.40;;;;;;;;;;499261;28;1069;-83
2024/03/16 00:32:26;;;;;;;5.95;4.43;;;;;;;;;;497212;28;1079;-84
2024/03/16 00:32:42;;;;;;;5.45;4.30;;;;;;;;;;496995;28;1377;-84
2024/03/16 00:32:58;;;;;;;6.47;4.25;;;;;;;;;;499283;28;1080;-84
2024/03/16 00:33:14;;;;;;;5.80;4.00;;;;;;;;;;500099;28;2023;-84
2024/03/16 00:33:29;;;;;;;4.47;4.00;;;;;;;;;;496565;28;1307;-84
2024/03/16 00:33:45;;;;;;;4.73;4.13;;;;;;;;;;501154;28;1274;-84
2024/03/16 00:34:04;;;;;;;5.25;4.15;;;;;;;;;;501971;28;970;-84
2024/03/16 00:34:19;;;;;;;5.20;4.05;;;;;;;;;;499064;28;1418;-83
2024/03/16 00:34:35;;;;;;;5.43;4.10;;;;;;;;;;491680;28;1145;-84
2024/03/16 00:34:51;;;;;;;7.45;4.60;;;;;;;;;;495896;28;1248;-84
2024/03/16 00:35:07;;;;;;;8.48;4.90;;;;;;;;;;500165;28;1196;-83
2024/03/16 00:35:22;;;;;;;6.60;4.53;;;;;;;;;;500848;28;1168;-84
2024/03/16 00:35:38;;;;;;;5.07;4.00;;;;;;;;;;498361;28;1072;-84
2024/03/16 00:35:54;;;;;;;5.60;3.80;;;;;;;;;;502155;28;1123;-83
2024/03/16 00:36:10;;;;;;;6.22;3.97;;;;;;;;;;502019;28;1052;-84
2024/03/16 00:36:26;;;;;;;6.07;4.10;;;;;;;;;;498176;28;1351;-83
2024/03/16 00:36:42;;;;;;;5.43;4.00;;;;;;;;;;496180;28;1408;-83
2024/03/16 00:37:02;;;;;;;5.22;4.00;;;;;;;;;;500921;28;1120;-84
2024/03/16 00:37:18;;;;;;;5.32;4.20;;;;;;;;;;500860;28;1092;-84
2024/03/16 00:37:33;;;;;;;5.57;4.18;;;;;;;;;;496617;28;1017;-83
2024/03/16 00:37:50;;;;;;;5.80;4.10;;;;;;;;;;498596;28;1308;-84
2024/03/16 00:38:06;;;;;;;5.03;3.95;;;;;;;;;;497734;28;1632;-83
2024/03/16 00:38:21;;;;;;;4.38;3.88;;;;;;;;;;498378;28;1382;-83
2024/03/16 00:38:37;;;;;;;5.70;4.20;;;;;;;;;;494589;28;1253;-84
2024/03/16 00:38:53;;;;;;;6.50;4.18;;;;;;;;;;497256;28;1152;-84
2024/03/16 00:39:23;;;;;;;5.78;4.25;;;;;;;;;;498917;28;1325;-84
2024/03/16 00:39:40;;;;;;;5.15;4.10;;;;;;;;;;498709;28;1286;-83
2024/03/16 00:39:55;;;;;;;4.97;4.20;;;;;;;;;;499195;28;1262;-84
2024/03/16 00:40:11;;;;;;;5.80;4.20;;;;;;;;;;499296;28;890;-83
2024/03/16 00:40:26;;;;;;;6.32;4.40;;;;;;;;;;499383;28;1031;-82
2024/03/16 00:40:42;;;;;;;6.20;4.70;;;;;;;;;;497409;28;1297;-83
2024/03/16 00:40:58;;;;;;;6.67;4.77;;;;;;;;;;499557;28;934;-83
2024/03/16 00:41:15;;;;;;;6.38;4.50;;;;;;;;;;498814;28;1284;-84
2024/03/16 00:41:31;;;;;;;6.28;4.63;;;;;;;;;;496428;28;1325;-85
2024/03/16 00:41:47;;;;;;;6.03;4.80;;;;;;;;;;498560;28;1262;-82
2024/03/16 00:42:03;;;;;;;6.07;4.68;;;;;;;;;;499161;28;1061;-83
2024/03/16 00:42:20;;;;;;;6.50;5.00;;;;;;;;;;497893;28;1124;-83
2024/03/16 00:42:36;;;;;;;6.70;5.18;;;;;;;;;;494174;28;1121;-83
2024/03/16 00:42:52;;;;;;;6.32;5.00;;;;;;;;;;498077;28;1000;-83
2024/03/16 00:43:08;;;;;;;6.60;5.07;;;;;;;;;;497875;28;1296;-83
2024/03/16 00:43:23;;;;;;;6.75;4.97;;;;;;;;;;494432;28;1213;-83
2024/03/16 00:43:39;;;;;;;6.97;5.00;;;;;;;;;;493386;28;1957;-83
2024/03/16 00:43:55;;;;;;;6.60;5.28;;;;;;;;;;497831;28;1173;-83
2024/03/16 00:44:11;;;;;;;6.60;5.10;;;;;;;;;;499221;28;1198;-84
2024/03/16 00:44:27;;;;;;;7.07;5.20;;;;;;;;;;495841;28;1364;-83
2024/03/16 00:44:43;;;;;;;6.85;5.32;;;;;;;;;;496296;28;2118;-83
2024/03/16 00:44:59;;;;;;;6.55;5.25;;;;;;;;;;497392;28;978;-84
2024/03/16 00:45:15;;;;;;;6.72;5.40;;;;;;;;;;497206;28;1093;-83
2024/03/16 00:45:30;;;;;;;6.95;5.72;;;;;;;;;;494802;28;1258;-83
2024/03/16 00:45:46;;;;;;;7.33;5.70;;;;;;;;;;497299;28;1254;-83
2024/03/16 00:46:03;;;;;;;7.03;5.70;;;;;;;;;;500652;28;1281;-83
2024/03/16 00:46:19;;;;;;;6.18;5.57;;;;;;;;;;499428;28;1315;-83
2024/03/16 00:46:35;;;;;;;6.40;5.10;;;;;;;;;;493178;28;1060;-84
2024/03/16 00:46:51;;;;;;;6.95;4.80;;;;;;;;;;494278;28;1323;-83
2024/03/16 00:47:07;;;;;;;6.57;4.93;;;;;;;;;;494614;28;1283;-83
2024/03/16 00:47:23;;;;;;;7.40;5.20;;;;;;;;;;493720;28;1384;-83
2024/03/16 00:47:39;;;;;;;7.30;4.88;;;;;;;;;;493582;28;1445;-83
2024/03/16 00:47:56;;;;;;;5.38;4.22;;;;;;;;;;498958;28;1223;-83
2024/03/16 00:48:12;;;;;;;5.55;4.25;;;;;;;;;;498472;28;1171;-83
2024/03/16 00:48:28;;;;;;;5.38;4.38;;;;;;;;;;498340;28;1199;-83
2024/03/16 00:48:43;;;;;;;5.30;4.30;;;;;;;;;;494416;28;1464;-82
2024/03/16 00:48:59;;;;;;;6.57;4.22;;;;;;;;;;494175;28;1231;-83
2024/03/16 00:49:16;;;;;;;6.32;4.20;;;;;;;;;;492615;28;1197;-83
2024/03/16 00:49:31;;;;;;;5.28;4.30;;;;;;;;;;489638;28;1289;-82
2024/03/16 00:49:52;;;;;;;5.53;4.40;;;;;;;;;;492137;28;1216;-83
2024/03/16 00:50:08;;;;;;;6.00;4.43;;;;;;;;;;491980;28;969;-82
2024/03/16 00:50:24;;;;;;;5.88;4.50;;;;;;;;;;492193;28;1183;-82
2024/03/16 00:50:40;;;;;;;6.05;4.57;;;;;;;;;;490648;28;1042;-82
2024/03/16 00:50:59;;;;;;;6.03;4.40;;;;;;;;;;496860;28;1258;-82
2024/03/16 00:51:15;;;;;;;6.05;4.43;;;;;;;;;;496553;28;937;-81
2024/03/16 00:51:30;;;;;;;7.13;5.00;;;;;;;;;;493150;28;1179;-81
2024/03/16 00:51:46;;;;;;;7.37;5.03;;;;;;;;;;495183;28;1266;-82
2024/03/16 00:52:02;;;;;;;7.45;4.65;;;;;;;;;;495569;28;1070;-82
2024/03/16 00:52:19;;;;;;;8.20;4.65;;;;;;;;;;497364;28;1109;-82
2024/03/16 00:52:35;;;;;;;7.68;4.70;;;;;;;;;;493355;28;1373;-82
2024/03/16 00:52:51;;;;;;;7.40;4.80;;;;;;;;;;495917;28;935;-81
2024/03/16 00:53:09;;;;;;;6.97;4.70;;;;;;;;;;495005;28;1349;-82
2024/03/16 00:53:24;;;;;;;6.18;4.68;;;;;;;;;;493817;28;1314;-83
2024/03/16 00:53:42;;;;;;;6.57;4.82;;;;;;;;;;491243;28;1234;-82
2024/03/16 00:53:58;;;;;;;6.60;4.80;;;;;;;;;;497182;28;1826;-82
2024/03/16 00:54:15;;;;;;;6.07;4.68;;;;;;;;;;497679;28;1222;-83
2024/03/16 00:54:31;;;;;;;7.68;4.97;;;;;;;;;;492036;28;1157;-83
2024/03/16 00:54:47;;;;;;;7.80;5.10;;;;;;;;;;496376;28;1421;-82
2024/03/16 00:55:09;;;;;;;6.22;4.88;;;;;;;;;;497344;28;1270;-83
2024/03/16 00:55:24;;;;;;;7.13;4.80;;;;;;;;;;495413;28;1323;-83
2024/03/16 00:55:40;;;;;;;6.90;4.80;;;;;;;;;;494017;28;1040;-82
2024/03/16 00:55:57;;;;;;;6.60;4.88;;;;;;;;;;496219;28;1097;-82
2024/03/16 00:56:13;;;;;;;7.05;4.90;;;;;;;;;;496629;28;1309;-82
2024/03/16 00:56:28;;;;;;;6.35;4.75;;;;;;;;;;494512;28;1092;-83
2024/03/16 00:56:46;;;;;;;6.10;4.65;;;;;;;;;;494799;28;1069;-82
2024/03/16 00:57:02;;;;;;;5.97;4.40;;;;;;;;;;494995;28;1208;-83
2024/03/16 00:57:18;;;;;;;6.57;4.40;;;;;;;;;;494614;28;1215;-81
2024/03/16 00:57:34;;;;;;;6.45;4.60;;;;;;;;;;491441;28;1259;-82
2024/03/16 00:57:51;;;;;;;6.18;4.60;;;;;;;;;;494649;28;1381;-82
2024/03/16 00:58:07;;;;;;;5.72;4.68;;;;;;;;;;492991;28;1261;-82
2024/03/16 00:58:23;;;;;;;5.22;4.15;;;;;;;;;;495956;28;1240;-82
2024/03/16 00:58:39;;;;;;;5.75;4.20;;;;;;;;;;491995;28;1234;-81
2024/03/16 00:58:55;;;;;;;6.17;4.67;;;;;;;;;;493898;28;1228;-82
2024/03/16 00:59:12;;;;;;;6.07;4.75;;;;;;;;;;493546;28;942;-82
2024/03/16 00:59:28;;;;;;;6.28;4.80;;;;;;;;;;492224;28;1101;-82
2024/03/16 00:59:45;;;;;;;5.10;4.30;;;;;;;;;;494161;28;1331;-82
2024/03/16 01:00:01;;;;;;;4.60;4.10;;;;;;;;;;494228;28;1238;-82
2024/03/16 01:00:18;;;;;;;4.90;4.32;;;;;;;;;;494869;28;1022;-83
2024/03/16 01:00:34;;;;;;;6.13;4.50;;;;;;;;;;492499;28;1336;-82
2024/03/16 01:00:51;;;;;;;6.50;4.85;;;;;;;;;;494968;28;1353;-82
2024/03/16 01:01:07;;;;;;;6.88;4.82;;;;;;;;;;494101;28;1431;-82
2024/03/16 01:01:23;;;;;;;6.82;4.80;;;;;;;;;;493771;28;1233;-82
2024/03/16 01:01:39;;;;;;;6.43;4.83;;;;;;;;;;492005;28;925;-83
2024/03/16 01:01:55;;;;;;;6.93;4.78;;;;;;;;;;496026;28;1385;-83
2024/03/16 01:02:11;;;;;;;6.10;4.45;;;;;;;;;;496556;28;1144;-82
2024/03/16 01:02:27;;;;;;;6.70;4.55;;;;;;;;;;495654;28;1048;-82
2024/03/16 01:02:43;;;;;;;7.33;4.80;;;;;;;;;;496671;28;1305;-81
2024/03/16 01:02:59;;;;;;;7.20;4.90;;;;;;;;;;496830;28;1318;-82
2024/03/16 01:03:15;;;;;;;6.38;4.68;;;;;;;;;;495521;28;1512;-83
2024/03/16 01:03:31;;;;;;;6.88;4.50;;;;;;;;;;491475;28;1238;-82
2024/03/16 01:03:48;;;;;;;6.82;4.65;;;;;;;;;;493393;28;1974;-82
2024/03/16 01:04:04;;;;;;;7.22;4.72;;;;;;;;;;492977;28;1216;-81
2024/03/16 01:04:21;;;;;;;6.55;4.60;;;;;;;;;;492455;28;1105;-81
2024/03/16 01:04:36;;;;;;;6.05;4.45;;;;;;;;;;492428;28;1271;-82
2024/03/16 01:04:52;;;;;;;6.55;4.72;;;;;;;;;;495322;28;1337;-82
2024/03/16 01:05:08;;;;;;;6.13;4.77;;;;;;;;;;495738;28;1072;-82
2024/03/16 01:05:26;;;;;;;5.70;4.50;;;;;;;;;;494123;28;1255;-82
2024/03/16 01:05:42;;;;;;;6.03;4.60;;;;;;;;;;494304;28;1012;-82
2024/03/16 01:05:59;;;;;;;7.13;4.70;;;;;;;;;;497479;28;1116;-82
2024/03/16 01:06:15;;;;;;;8.18;4.80;;;;;;;;;;496576;28;1151;-82
2024/03/16 01:06:30;;;;;;;7.80;4.70;;;;;;;;;;494717;28;1341;-82
2024/03/16 01:06:47;;;;;;;6.65;4.50;;;;;;;;;;495423;28;1182;-82
2024/03/16 01:07:03;;;;;;;6.57;4.60;;;;;;;;;;496611;28;1184;-82
2024/03/16 01:07:19;;;;;;;6.47;4.57;;;;;;;;;;494137;28;1288;-82
2024/03/16 01:07:37;;;;;;;6.43;4.35;;;;;;;;;;491571;28;1373;-81
2024/03/16 01:07:53;;;;;;;7.05;4.32;;;;;;;;;;496912;28;1033;-83
2024/03/16 01:08:09;;;;;;;8.05;4.30;;;;;;;;;;496504;28;913;-82
2024/03/16 01:08:24;;;;;;;7.00;4.38;;;;;;;;;;494178;28;1292;-82
2024/03/16 01:08:40;;;;;;;6.83;4.60;;;;;;;;;;492263;28;1275;-82
2024/03/16 01:08:56;;;;;;;6.78;4.70;;;;;;;;;;492844;28;1371;-81
2024/03/16 01:09:16;;;;;;;7.07;4.78;;;;;;;;;;496544;28;1232;-81
2024/03/16 01:09:31;;;;;;;6.53;4.65;;;;;;;;;;493607;28;1248;-82
2024/03/16 01:09:48;;;;;;;6.00;4.50;;;;;;;;;;494449;28;1119;-82
2024/03/16 01:10:04;;;;;;;5.22;4.25;;;;;;;;;;494859;28;1214;-81
2024/03/16 01:10:19;;;;;;;6.32;4.53;;;;;;;;;;495210;28;1125;-82
2024/03/16 01:10:36;;;;;;;6.75;4.70;;;;;;;;;;493648;28;1287;-82
2024/03/16 01:10:55;;;;;;;6.30;4.57;;;;;;;;;;497242;28;1205;-82
2024/03/16 01:11:12;;;;;;;5.88;4.50;;;;;;;;;;494500;28;1323;-82
2024/03/16 01:11:27;;;;;;;4.88;4.38;;;;;;;;;;493222;28;1321;-81
2024/03/16 01:11:43;;;;;;;5.28;4.20;;;;;;;;;;491483;28;1365;-82
2024/03/16 01:11:59;;;;;;;5.30;4.30;;;;;;;;;;492437;28;964;-82
2024/03/16 01:12:15;;;;;;;4.90;4.30;;;;;;;;;;493042;28;1167;-81
2024/03/16 01:12:31;;;;;;;5.88;4.53;;;;;;;;;;490601;28;1172;-82
2024/03/16 01:12:47;;;;;;;5.97;4.50;;;;;;;;;;494555;28;1247;-82
2024/03/16 01:13:04;;;;;;;6.47;4.40;;;;;;;;;;495344;28;1053;-82
2024/03/16 01:13:20;;;;;;;6.85;4.68;;;;;;;;;;497319;28;981;-82
2024/03/16 01:13:39;;;;;;;6.55;4.72;;;;;;;;;;493365;28;1298;-82
2024/03/16 01:13:56;;;;;;;6.53;4.70;;;;;;;;;;495647;28;1330;-81
2024/03/16 01:14:15;;;;;;;6.55;4.50;;;;;;;;;;495097;28;1329;-82
2024/03/16 01:14:31;;;;;;;7.40;4.78;;;;;;;;;;493714;28;1244;-81
2024/03/16 01:14:47;;;;;;;8.87;5.07;;;;;;;;;;498001;28;1155;-82
2024/03/16 01:15:04;;;;;;;8.00;4.80;;;;;;;;;;497861;28;1145;-82
2024/03/16 01:15:21;;;;;;;6.55;4.28;;;;;;;;;;498770;28;1410;-81
2024/03/16 01:15:37;;;;;;;5.05;4.10;;;;;;;;;;495154;28;1187;-82
2024/03/16 01:15:55;;;;;;;5.88;4.45;;;;;;;;;;495075;28;1305;-82
2024/03/16 01:16:21;;;;;;;6.38;4.72;;;;;;;;;;494749;28;1330;-82
2024/03/16 01:16:37;;;;;;;6.47;5.05;;;;;;;;;;493898;28;1199;-82
2024/03/16 01:16:53;;;;;;;5.80;4.80;;;;;;;;;;495454;28;1353;-82
2024/03/16 01:17:10;;;;;;;7.18;4.80;;;;;;;;;;497233;28;1000;-82
2024/03/16 01:17:26;;;;;;;6.93;4.43;;;;;;;;;;498628;28;1275;-80
2024/03/16 01:17:42;;;;;;;5.40;3.90;;;;;;;;;;494496;28;1194;-82
2024/03/16 01:17:58;;;;;;;6.50;3.88;;;;;;;;;;496313;28;1012;-83
2024/03/16 01:18:14;;;;;;;7.70;4.35;;;;;;;;;;498532;28;1024;-82
2024/03/16 01:18:30;;;;;;;6.70;4.77;;;;;;;;;;496690;28;1062;-82
2024/03/16 01:18:53;;;;;;;6.32;4.85;;;;;;;;;;496955;28;1045;-83
2024/03/16 01:19:19;;;;;;;6.40;4.90;;;;;;;;;;494490;28;1264;-82
2024/03/16 01:19:41;;;;;;;6.38;4.90;;;;;;;;;;494582;28;1137;-82
2024/03/16 01:20:00;;;;;;;5.70;4.57;;;;;;;;;;498821;28;1211;-83
2024/03/16 01:20:16;;;;;;;6.57;4.70;;;;;;;;;;496461;28;1244;-82
2024/03/16 01:20:32;;;;;;;7.97;5.00;;;;;;;;;;492515;28;1128;-81
2024/03/16 01:20:48;;;;;;;7.20;5.00;;;;;;;;;;491904;28;1368;-82
2024/03/16 01:21:06;;;;;;;6.50;5.03;;;;;;;;;;495287;28;1278;-82
2024/03/16 01:21:21;;;;;;;6.75;5.10;;;;;;;;;;493182;28;1292;-82
2024/03/16 01:21:44;;;;;;;6.57;4.82;;;;;;;;;;491316;28;1313;-81
2024/03/16 01:22:01;;;;;;;6.90;4.85;;;;;;;;;;494854;28;1201;-82
2024/03/16 01:22:17;;;;;;;7.38;5.07;;;;;;;;;;497320;28;1369;-81
2024/03/16 01:22:33;;;;;;;7.30;5.00;;;;;;;;;;491019;28;1301;-82
2024/03/16 01:22:48;;;;;;;7.10;5.00;;;;;;;;;;494414;28;1214;-82
2024/03/16 01:23:06;;;;;;;6.70;5.20;;;;;;;;;;492668;28;1241;-81
2024/03/16 01:23:22;;;;;;;6.88;5.13;;;;;;;;;;491875;28;941;-82
2024/03/16 01:23:38;;;;;;;7.67;5.20;;;;;;;;;;491300;28;2013;-81
2024/03/16 01:23:54;;;;;;;8.10;5.10;;;;;;;;;;493937;28;1015;-82
2024/03/16 01:24:11;;;;;;;8.85;4.93;;;;;;;;;;493949;28;1243;-82
2024/03/16 01:24:26;;;;;;;7.55;5.00;;;;;;;;;;491441;28;1449;-81
2024/03/16 01:24:45;;;;;;;6.18;4.85;;;;;;;;;;491870;28;1309;-82
2024/03/16 01:25:02;;;;;;;6.95;4.80;;;;;;;;;;493061;28;1138;-82
2024/03/16 01:25:19;;;;;;;7.85;5.43;;;;;;;;;;493204;28;1215;-83
2024/03/16 01:25:35;;;;;;;7.22;5.80;;;;;;;;;;493930;28;1170;-82
2024/03/16 01:25:51;;;;;;;8.25;6.30;;;;;;;;;;495928;28;1182;-82
2024/03/16 01:26:07;;;;;;;8.38;5.93;;;;;;;;;;493740;28;1146;-82
2024/03/16 01:26:23;;;;;;;8.93;5.50;;;;;;;;;;495222;28;1060;-82
2024/03/16 01:26:38;;;;;;;8.30;5.43;;;;;;;;;;494042;28;1235;-82
2024/03/16 01:26:57;;;;;;;8.30;5.55;;;;;;;;;;492422;28;1226;-82
2024/03/16 01:27:12;;;;;;;7.30;5.30;;;;;;;;;;496177;28;1195;-82
2024/03/16 01:27:28;;;;;;;8.13;5.38;;;;;;;;;;496434;28;1330;-81
2024/03/16 01:27:44;;;;;;;9.70;5.70;;;;;;;;;;497506;28;945;-82
2024/03/16 01:28:04;;;;;;;8.40;5.65;;;;;;;;;;498076;28;1189;-81
2024/03/16 01:28:20;;;;;;;7.97;5.50;;;;;;;;;;496074;28;1173;-82
2024/03/16 01:28:36;;;;;;;8.02;5.60;;;;;;;;;;490829;28;1208;-82
2024/03/16 01:28:53;;;;;;;7.95;5.50;;;;;;;;;;493515;28;1313;-82
2024/03/16 01:29:15;;;;;;;7.80;5.30;;;;;;;;;;492851;28;1272;-81
2024/03/16 01:29:32;;;;;;;7.20;5.35;;;;;;;;;;492839;28;1301;-82
2024/03/16 01:29:48;;;;;;;6.47;5.30;;;;;;;;;;496509;28;1311;-81
2024/03/16 01:30:08;;;;;;;8.07;5.43;;;;;;;;;;496690;28;1405;-82
2024/03/16 01:30:24;;;;;;;7.80;5.53;;;;;;;;;;493097;28;1273;-81
2024/03/16 01:30:40;;;;;;;7.10;5.53;;;;;;;;;;494173;28;1360;-82
2024/03/16 01:30:57;;;;;;;8.07;5.57;;;;;;;;;;490622;28;1179;-82
2024/03/16 01:31:15;;;;;;;7.57;5.18;;;;;;;;;;492290;28;1057;-81
2024/03/16 01:31:31;;;;;;;6.72;4.78;;;;;;;;;;490885;28;1344;-81
2024/03/16 01:31:50;;;;;;;7.10;5.07;;;;;;;;;;494081;28;1226;-81
2024/03/16 01:32:08;;;;;;;7.68;5.53;;;;;;;;;;492591;28;1189;-82
2024/03/16 01:32:23;;;;;;;6.57;5.07;;;;;;;;;;494126;28;1446;-81
2024/03/16 01:32:48;;;;;;;5.67;4.83;;;;;;;;;;490303;28;1209;-82
2024/03/16 01:33:04;;;;;;;6.63;5.10;;;;;;;;;;494867;28;1257;-82
2024/03/16 01:33:20;;;;;;;6.78;5.20;;;;;;;;;;492296;28;1390;-81
2024/03/16 01:33:36;;;;;;;7.10;5.30;;;;;;;;;;487917;28;1324;-85
2024/03/16 01:33:51;;;;;;;7.07;5.30;;;;;;;;;;494353;28;1059;-81
2024/03/16 01:34:07;;;;;;;6.88;5.13;;;;;;;;;;492690;28;1125;-81
2024/03/16 01:34:23;;;;;;;7.47;5.30;;;;;;;;;;495259;28;1089;-82
2024/03/16 01:34:39;;;;;;;8.27;5.50;;;;;;;;;;491512;28;1299;-81
2024/03/16 01:34:56;;;;;;;7.88;5.30;;;;;;;;;;495700;28;1251;-82
2024/03/16 01:35:15;;;;;;;7.32;5.25;;;;;;;;;;493186;28;1203;-82
2024/03/16 01:35:31;;;;;;;7.75;5.25;;;;;;;;;;492378;28;1250;-82
2024/03/16 01:35:49;;;;;;;8.18;5.32;;;;;;;;;;492591;28;1299;-82
2024/03/16 01:36:07;;;;;;;7.15;5.13;;;;;;;;;;492952;28;1471;-82
2024/03/16 01:36:23;;;;;;;7.90;5.20;;;;;;;;;;494991;28;1216;-82
2024/03/16 01:36:39;;;;;;;8.10;4.95;;;;;;;;;;493582;28;1042;-81
2024/03/16 01:36:55;;;;;;;8.27;5.18;;;;;;;;;;497474;28;1235;-83
2024/03/16 01:37:14;;;;;;;8.63;5.53;;;;;;;;;;495923;28;1311;-82
2024/03/16 01:37:30;;;;;;;8.48;5.53;;;;;;;;;;494227;28;1184;-82
2024/03/16 01:37:45;;;;;;;7.67;5.37;;;;;;;;;;496465;28;1293;-82
2024/03/16 01:38:01;;;;;;;6.95;5.03;;;;;;;;;;493289;28;1245;-82
2024/03/16 01:38:18;;;;;;;6.40;4.72;;;;;;;;;;494595;28;1050;-81
2024/03/16 01:38:36;;;;;;;6.95;5.05;;;;;;;;;;490927;28;1250;-81
2024/03/16 01:38:52;;;;;;;7.43;5.57;;;;;;;;;;492850;28;1141;-82
2024/03/16 01:39:11;;;;;;;7.05;5.40;;;;;;;;;;493112;28;1117;-81
2024/03/16 01:39:27;;;;;;;6.75;5.30;;;;;;;;;;491697;28;1429;-81
2024/03/16 01:39:45;;;;;;;6.90;5.25;;;;;;;;;;492152;28;1055;-82
2024/03/16 01:40:06;;;;;;;6.35;5.10;;;;;;;;;;496514;28;1286;-81
2024/03/16 01:40:25;;;;;;;7.30;5.18;;;;;;;;;;496168;28;1077;-80
2024/03/16 01:40:41;;;;;;;7.30;5.20;;;;;;;;;;490676;28;1313;-82
2024/03/16 01:40:57;;;;;;;8.40;5.43;;;;;;;;;;493203;28;1057;-81
2024/03/16 01:41:13;;;;;;;8.13;5.40;;;;;;;;;;493877;28;1021;-82
2024/03/16 01:41:29;;;;;;;7.25;5.40;;;;;;;;;;487801;28;1148;-81
2024/03/16 01:41:50;;;;;;;7.45;5.30;;;;;;;;;;492705;28;1057;-81
2024/03/16 01:42:09;;;;;;;7.90;5.63;;;;;;;;;;492376;28;1511;-81
2024/03/16 01:42:25;;;;;;;9.43;5.72;;;;;;;;;;493024;28;1203;-81